sensor_id;sensor_type;location;lat;lon;timestamp;pressure;altitude;pressure_sealevel;temperature;humidity
74921;BME280;63483;47.384;8.860;2022-12-07T00:02:00;94553.78;;;-0.72;54.95
74921;BME280;63483;47.384;8.860;2022-12-07T00:04:26;94561.50;;;-0.72;54.80
74921;BME280;63483;47.384;8.860;2022-12-07T00:06:52;94568.16;;;-0.70;55.00
74921;BME280;63483;47.384;8.860;2022-12-07T00:09:18;94566.41;;;-0.69;54.60
74921;BME280;63483;47.384;8.860;2022-12-07T00:11:48;94564.53;;;-0.67;54.56
74921;BME280;63483;47.384;8.860;2022-12-07T00:14:15;94568.75;;;-0.66;54.80
74921;BME280;63483;47.384;8.860;2022-12-07T00:16:41;94556.81;;;-0.67;54.31
74921;BME280;63483;47.384;8.860;2022-12-07T00:19:08;94549.81;;;-0.65;55.24
74921;BME280;63483;47.384;8.860;2022-12-07T00:21:35;94551.44;;;-0.64;54.93
74921;BME280;63483;47.384;8.860;2022-12-07T00:24:01;94546.31;;;-0.64;54.36
74921;BME280;63483;47.384;8.860;2022-12-07T00:26:33;94553.09;;;-0.63;54.46
74921;BME280;63483;47.384;8.860;2022-12-07T00:29:04;94547.94;;;-0.63;54.38
74921;BME280;63483;47.384;8.860;2022-12-07T00:31:36;94545.38;;;-0.63;54.44
74921;BME280;63483;47.384;8.860;2022-12-07T00:34:04;94542.81;;;-0.63;54.52
74921;BME280;63483;47.384;8.860;2022-12-07T00:36:30;94547.03;;;-0.62;54.25
74921;BME280;63483;47.384;8.860;2022-12-07T00:38:58;94538.34;;;-0.61;54.72
74921;BME280;63483;47.384;8.860;2022-12-07T00:41:25;94539.31;;;-0.62;54.69
74921;BME280;63483;47.384;8.860;2022-12-07T00:43:52;94542.81;;;-0.63;54.35
74921;BME280;63483;47.384;8.860;2022-12-07T00:46:19;94540.94;;;-0.61;55.10
74921;BME280;63483;47.384;8.860;2022-12-07T00:48:44;94544.34;;;-0.60;55.08
74921;BME280;63483;47.384;8.860;2022-12-07T00:51:11;94544.22;;;-0.59;54.28
74921;BME280;63483;47.384;8.860;2022-12-07T00:53:37;94541.53;;;-0.57;54.78
74921;BME280;63483;47.384;8.860;2022-12-07T00:56:11;94547.50;;;-0.57;54.82
74921;BME280;63483;47.384;8.860;2022-12-07T00:58:37;94544.22;;;-0.59;54.88
74921;BME280;63483;47.384;8.860;2022-12-07T01:01:04;94540.00;;;-0.60;54.62
74921;BME280;63483;47.384;8.860;2022-12-07T01:03:29;94536.00;;;-0.64;54.75
74921;BME280;63483;47.384;8.860;2022-12-07T01:05:56;94547.13;;;-0.63;54.74
74921;BME280;63483;47.384;8.860;2022-12-07T01:08:22;94554.03;;;-0.64;54.70
74921;BME280;63483;47.384;8.860;2022-12-07T01:10:48;94553.31;;;-0.66;54.77
74921;BME280;63483;47.384;8.860;2022-12-07T01:13:14;94554.44;;;-2.04;52.86
74921;BME280;63483;47.384;8.860;2022-12-07T01:15:44;94550.53;;;-2.74;51.44
74921;BME280;63483;47.384;8.860;2022-12-07T01:18:10;94553.91;;;-3.26;52.85
74921;BME280;63483;47.384;8.860;2022-12-07T01:20:36;94558.06;;;-3.80;53.41
74921;BME280;63483;47.384;8.860;2022-12-07T01:23:02;94555.25;;;-4.04;53.98
74921;BME280;63483;47.384;8.860;2022-12-07T01:25:28;94555.16;;;-4.46;53.47
74921;BME280;63483;47.384;8.860;2022-12-07T01:27:53;94556.16;;;-4.63;54.79
74921;BME280;63483;47.384;8.860;2022-12-07T01:30:19;94556.84;;;-4.75;54.90
74921;BME280;63483;47.384;8.860;2022-12-07T01:32:44;94564.06;;;-4.82;54.08
74921;BME280;63483;47.384;8.860;2022-12-07T01:35:09;94555.41;;;-4.79;54.44
74921;BME280;63483;47.384;8.860;2022-12-07T01:37:36;94558.38;;;-4.87;54.40
74921;BME280;63483;47.384;8.860;2022-12-07T01:40:03;94556.16;;;-4.93;53.30
74921;BME280;63483;47.384;8.860;2022-12-07T01:42:29;94554.91;;;-4.86;52.87
74921;BME280;63483;47.384;8.860;2022-12-07T01:47:53;94552.59;;;-4.46;52.87
74921;BME280;63483;47.384;8.860;2022-12-07T01:50:21;94547.69;;;-4.34;51.35
74921;BME280;63483;47.384;8.860;2022-12-07T01:52:50;94546.78;;;-4.33;51.19
74921;BME280;63483;47.384;8.860;2022-12-07T01:55:18;94544.31;;;-4.49;50.51
74921;BME280;63483;47.384;8.860;2022-12-07T01:57:48;94548.41;;;-4.32;51.10
74921;BME280;63483;47.384;8.860;2022-12-07T02:00:14;94556.09;;;-4.18;49.83
74921;BME280;63483;47.384;8.860;2022-12-07T02:02:57;94551.59;;;-3.86;48.68
74921;BME280;63483;47.384;8.860;2022-12-07T02:05:26;94547.66;;;-3.91;47.83
74921;BME280;63483;47.384;8.860;2022-12-07T02:07:53;94545.28;;;-3.80;48.93
74921;BME280;63483;47.384;8.860;2022-12-07T02:10:30;94550.88;;;-3.60;51.28
74921;BME280;63483;47.384;8.860;2022-12-07T02:12:59;94553.91;;;-3.26;52.77
74921;BME280;63483;47.384;8.860;2022-12-07T02:15:48;94550.50;;;-4.25;62.06
74921;BME280;63483;47.384;8.860;2022-12-07T02:18:48;94551.09;;;-4.79;56.59
74921;BME280;63483;47.384;8.860;2022-12-07T02:21:29;94542.25;;;-5.18;56.47
74921;BME280;63483;47.384;8.860;2022-12-07T02:29:39;94537.63;;;-5.73;56.99
74921;BME280;63483;47.384;8.860;2022-12-07T02:32:15;94543.22;;;-5.83;56.79
74921;BME280;63483;47.384;8.860;2022-12-07T02:34:55;94541.16;;;-5.76;58.45
74921;BME280;63483;47.384;8.860;2022-12-07T02:37:43;94537.28;;;-5.83;56.77
74921;BME280;63483;47.384;8.860;2022-12-07T02:40:31;94542.31;;;-5.82;56.30
74921;BME280;63483;47.384;8.860;2022-12-07T02:43:07;94539.44;;;-5.75;55.86
74921;BME280;63483;47.384;8.860;2022-12-07T02:45:35;94535.81;;;-5.71;55.19
74921;BME280;63483;47.384;8.860;2022-12-07T02:48:02;94531.25;;;-5.04;57.67
74921;BME280;63483;47.384;8.860;2022-12-07T02:50:29;94530.31;;;-4.29;59.11
74921;BME280;63483;47.384;8.860;2022-12-07T02:52:54;94534.84;;;-3.77;58.21
74921;BME280;63483;47.384;8.860;2022-12-07T02:55:25;94532.97;;;-3.33;58.56
74921;BME280;63483;47.384;8.860;2022-12-07T03:00:27;94519.53;;;-2.71;56.83
74921;BME280;63483;47.384;8.860;2022-12-07T03:03:13;94523.78;;;-2.44;58.06
74921;BME280;63483;47.384;8.860;2022-12-07T03:08:43;94530.63;;;-2.06;56.95
74921;BME280;63483;47.384;8.860;2022-12-07T03:11:16;94519.31;;;-1.91;56.02
74921;BME280;63483;47.384;8.860;2022-12-07T03:13:48;94521.00;;;-1.78;56.16
74921;BME280;63483;47.384;8.860;2022-12-07T03:16:18;94515.84;;;-1.65;55.82
74921;BME280;63483;47.384;8.860;2022-12-07T03:18:50;94511.81;;;-1.57;55.59
74921;BME280;63483;47.384;8.860;2022-12-07T03:21:20;94511.97;;;-1.47;55.51
74921;BME280;63483;47.384;8.860;2022-12-07T03:23:51;94503.59;;;-1.38;55.25
74921;BME280;63483;47.384;8.860;2022-12-07T03:26:19;94509.22;;;-1.32;55.10
74921;BME280;63483;47.384;8.860;2022-12-07T03:28:51;94509.59;;;-1.26;55.61
74921;BME280;63483;47.384;8.860;2022-12-07T03:31:25;94508.34;;;-1.20;55.03
74921;BME280;63483;47.384;8.860;2022-12-07T03:36:45;94511.78;;;-1.08;55.25
74921;BME280;63483;47.384;8.860;2022-12-07T03:39:33;94511.53;;;-1.05;55.47
74921;BME280;63483;47.384;8.860;2022-12-07T03:42:03;94513.00;;;-1.01;55.30
74921;BME280;63483;47.384;8.860;2022-12-07T03:44:31;94514.41;;;-0.97;55.17
74921;BME280;63483;47.384;8.860;2022-12-07T03:47:04;94512.53;;;-0.95;55.01
74921;BME280;63483;47.384;8.860;2022-12-07T03:49:40;94510.69;;;-0.93;54.80
74921;BME280;63483;47.384;8.860;2022-12-07T03:52:24;94517.25;;;-0.89;54.34
74921;BME280;63483;47.384;8.860;2022-12-07T03:54:56;94511.78;;;-0.84;54.67
74921;BME280;63483;47.384;8.860;2022-12-07T03:57:25;94515.84;;;-0.81;54.28
74921;BME280;63483;47.384;8.860;2022-12-07T03:59:51;94513.06;;;-0.78;54.56
74921;BME280;63483;47.384;8.860;2022-12-07T04:02:18;94511.91;;;-0.74;54.82
74921;BME280;63483;47.384;8.860;2022-12-07T04:04:45;94515.19;;;-0.72;54.08
74921;BME280;63483;47.384;8.860;2022-12-07T04:07:11;94515.88;;;-0.70;54.71
74921;BME280;63483;47.384;8.860;2022-12-07T04:09:36;94516.59;;;-0.68;54.56
74921;BME280;63483;47.384;8.860;2022-12-07T04:12:01;94516.38;;;-0.65;54.20
74921;BME280;63483;47.384;8.860;2022-12-07T04:14:27;94512.84;;;-0.64;54.07
74921;BME280;63483;47.384;8.860;2022-12-07T04:16:55;94516.03;;;-0.60;54.24
74921;BME280;63483;47.384;8.860;2022-12-07T04:19:24;94513.34;;;-0.59;54.04
74921;BME280;63483;47.384;8.860;2022-12-07T04:21:49;94509.81;;;-0.58;54.32
74921;BME280;63483;47.384;8.860;2022-12-07T04:24:15;94506.31;;;-0.57;54.37
74921;BME280;63483;47.384;8.860;2022-12-07T04:26:41;94506.09;;;-0.54;53.84
74921;BME280;63483;47.384;8.860;2022-12-07T04:29:08;94506.81;;;-0.52;54.38
74921;BME280;63483;47.384;8.860;2022-12-07T04:31:34;94505.84;;;-0.51;53.71
74921;BME280;63483;47.384;8.860;2022-12-07T04:34:00;94503.06;;;-0.47;53.85
74921;BME280;63483;47.384;8.860;2022-12-07T04:36:25;94501.31;;;-0.47;54.32
74921;BME280;63483;47.384;8.860;2022-12-07T04:38:53;94501.91;;;-0.43;53.55
74921;BME280;63483;47.384;8.860;2022-12-07T04:41:18;94502.72;;;-0.43;53.90
74921;BME280;63483;47.384;8.860;2022-12-07T04:43:44;94506.81;;;-0.40;54.17
74921;BME280;63483;47.384;8.860;2022-12-07T04:46:09;94506.81;;;-0.40;53.92
74921;BME280;63483;47.384;8.860;2022-12-07T04:48:34;94510.22;;;-0.40;54.15
74921;BME280;63483;47.384;8.860;2022-12-07T04:51:00;94512.69;;;-0.38;53.85
74921;BME280;63483;47.384;8.860;2022-12-07T04:53:25;94517.72;;;-0.37;53.82
74921;BME280;63483;47.384;8.860;2022-12-07T04:55:50;94514.19;;;-0.36;54.33
74921;BME280;63483;47.384;8.860;2022-12-07T04:58:16;94515.03;;;-0.35;53.68
74921;BME280;63483;47.384;8.860;2022-12-07T05:00:41;94514.91;;;-0.34;54.19
74921;BME280;63483;47.384;8.860;2022-12-07T05:03:06;94517.34;;;-0.32;53.42
74921;BME280;63483;47.384;8.860;2022-12-07T05:05:32;94521.56;;;-0.31;54.18
74921;BME280;63483;47.384;8.860;2022-12-07T05:07:57;94518.06;;;-0.30;53.63
74921;BME280;63483;47.384;8.860;2022-12-07T05:10:23;94515.34;;;-0.28;54.40
74921;BME280;63483;47.384;8.860;2022-12-07T05:12:48;94517.81;;;-0.27;53.63
74921;BME280;63483;47.384;8.860;2022-12-07T05:15:14;94507.53;;;-0.27;53.80
74921;BME280;63483;47.384;8.860;2022-12-07T05:17:40;94511.63;;;-0.24;53.71
74921;BME280;63483;47.384;8.860;2022-12-07T05:20:06;94516.78;;;-0.24;54.41
74921;BME280;63483;47.384;8.860;2022-12-07T05:22:31;94512.44;;;-0.24;53.94
74921;BME280;63483;47.384;8.860;2022-12-07T05:24:57;94514.09;;;-0.23;53.98
74921;BME280;63483;47.384;8.860;2022-12-07T05:27:23;94508.00;;;-0.22;54.00
74921;BME280;63483;47.384;8.860;2022-12-07T05:29:50;94508.69;;;-0.20;53.54
74921;BME280;63483;47.384;8.860;2022-12-07T05:32:15;94510.34;;;-0.19;54.34
74921;BME280;63483;47.384;8.860;2022-12-07T05:34:41;94501.91;;;-0.21;53.74
74921;BME280;63483;47.384;8.860;2022-12-07T05:37:06;94503.53;;;-0.20;54.42
74921;BME280;63483;47.384;8.860;2022-12-07T05:39:31;94512.81;;;-0.17;54.51
74921;BME280;63483;47.384;8.860;2022-12-07T05:41:57;94511.03;;;-0.17;53.58
74921;BME280;63483;47.384;8.860;2022-12-07T05:44:37;94513.59;;;-0.17;54.10
74921;BME280;63483;47.384;8.860;2022-12-07T05:47:03;94508.47;;;-0.17;53.39
74921;BME280;63483;47.384;8.860;2022-12-07T05:49:28;94504.47;;;-0.43;54.76
74921;BME280;63483;47.384;8.860;2022-12-07T05:51:54;94511.94;;;-1.71;49.96
74921;BME280;63483;47.384;8.860;2022-12-07T05:54:19;94509.19;;;-2.56;49.20
74921;BME280;63483;47.384;8.860;2022-12-07T05:56:45;94517.63;;;-3.20;50.48
74921;BME280;63483;47.384;8.860;2022-12-07T05:59:10;94520.38;;;-3.63;50.81
74921;BME280;63483;47.384;8.860;2022-12-07T06:01:48;94513.88;;;-3.96;51.27
74921;BME280;63483;47.384;8.860;2022-12-07T06:04:14;94510.94;;;-4.19;51.61
74921;BME280;63483;47.384;8.860;2022-12-07T06:06:39;94521.41;;;-4.37;51.58
74921;BME280;63483;47.384;8.860;2022-12-07T06:09:04;94521.38;;;-4.51;52.15
74921;BME280;63483;47.384;8.860;2022-12-07T06:11:30;94522.47;;;-4.55;51.48
74921;BME280;63483;47.384;8.860;2022-12-07T06:14:14;94523.47;;;-4.58;52.35
74921;BME280;63483;47.384;8.860;2022-12-07T06:16:39;94525.00;;;-4.26;55.87
74921;BME280;63483;47.384;8.860;2022-12-07T06:19:05;94530.13;;;-4.12;65.23
74921;BME280;63483;47.384;8.860;2022-12-07T06:21:30;94522.84;;;-4.47;62.10
74921;BME280;63483;47.384;8.860;2022-12-07T06:23:56;94522.09;;;-4.78;57.50
74921;BME280;63483;47.384;8.860;2022-12-07T06:26:21;94522.69;;;-5.03;57.65
74921;BME280;63483;47.384;8.860;2022-12-07T06:28:47;94525.81;;;-5.14;56.93
74921;BME280;63483;47.384;8.860;2022-12-07T06:31:12;94519.75;;;-5.27;58.46
74921;BME280;63483;47.384;8.860;2022-12-07T06:33:37;94521.94;;;-5.35;58.06
74921;BME280;63483;47.384;8.860;2022-12-07T06:36:03;94523.00;;;-5.39;57.06
74921;BME280;63483;47.384;8.860;2022-12-07T06:38:28;94530.94;;;-5.44;57.44
74921;BME280;63483;47.384;8.860;2022-12-07T06:40:54;94524.44;;;-5.50;57.66
74921;BME280;63483;47.384;8.860;2022-12-07T06:43:19;94532.09;;;-5.50;56.42
74921;BME280;63483;47.384;8.860;2022-12-07T06:45:45;94528.63;;;-5.49;56.95
74921;BME280;63483;47.384;8.860;2022-12-07T06:48:10;94531.66;;;-5.42;56.96
74921;BME280;63483;47.384;8.860;2022-12-07T06:50:35;94527.22;;;-5.38;56.46
74921;BME280;63483;47.384;8.860;2022-12-07T06:53:01;94526.53;;;-5.26;55.51
74921;BME280;63483;47.384;8.860;2022-12-07T06:55:26;94531.47;;;-5.23;54.73
74921;BME280;63483;47.384;8.860;2022-12-07T06:57:51;94528.78;;;-5.05;54.44
74921;BME280;63483;47.384;8.860;2022-12-07T07:00:17;94522.31;;;-4.97;53.58
74921;BME280;63483;47.384;8.860;2022-12-07T07:02:42;94522.44;;;-4.84;54.40
74921;BME280;63483;47.384;8.860;2022-12-07T07:05:08;94527.59;;;-4.55;53.25
74921;BME280;63483;47.384;8.860;2022-12-07T07:07:33;94535.44;;;-4.44;51.37
74921;BME280;63483;47.384;8.860;2022-12-07T07:09:59;94528.84;;;-4.19;51.17
74921;BME280;63483;47.384;8.860;2022-12-07T07:12:24;94532.84;;;-3.86;52.83
74921;BME280;63483;47.384;8.860;2022-12-07T07:14:49;94529.25;;;-3.42;55.97
74921;BME280;63483;47.384;8.860;2022-12-07T07:17:15;94524.41;;;-3.06;56.45
74921;BME280;63483;47.384;8.860;2022-12-07T07:19:40;94525.09;;;-2.77;56.57
74921;BME280;63483;47.384;8.860;2022-12-07T07:22:05;94521.59;;;-2.50;56.47
74921;BME280;63483;47.384;8.860;2022-12-07T07:24:31;94527.88;;;-3.20;65.59
74921;BME280;63483;47.384;8.860;2022-12-07T07:26:56;94531.72;;;-3.82;59.56
74921;BME280;63483;47.384;8.860;2022-12-07T07:29:22;94518.19;;;-4.40;57.28
74921;BME280;63483;47.384;8.860;2022-12-07T07:31:47;94524.19;;;-4.70;57.53
74921;BME280;63483;47.384;8.860;2022-12-07T07:34:12;94528.81;;;-4.91;58.00
74921;BME280;63483;47.384;8.860;2022-12-07T07:36:38;94531.78;;;-5.13;57.76
74921;BME280;63483;47.384;8.860;2022-12-07T07:39:03;94540.19;;;-5.27;58.44
74921;BME280;63483;47.384;8.860;2022-12-07T07:41:30;94534.13;;;-5.40;57.35
74921;BME280;63483;47.384;8.860;2022-12-07T07:43:55;94539.41;;;-5.44;56.94
74921;BME280;63483;47.384;8.860;2022-12-07T07:46:20;94537.91;;;-5.48;56.82
74921;BME280;63483;47.384;8.860;2022-12-07T07:48:46;94544.69;;;-5.47;57.76
74921;BME280;63483;47.384;8.860;2022-12-07T07:51:11;94534.97;;;-5.40;57.11
74921;BME280;63483;47.384;8.860;2022-12-07T07:53:36;94545.81;;;-5.36;56.08
74921;BME280;63483;47.384;8.860;2022-12-07T07:56:02;94540.00;;;-5.38;55.56
74921;BME280;63483;47.384;8.860;2022-12-07T07:58:27;94542.38;;;-5.35;55.55
74921;BME280;63483;47.384;8.860;2022-12-07T08:00:53;94548.59;;;-5.25;55.26
74921;BME280;63483;47.384;8.860;2022-12-07T08:03:18;94541.16;;;-5.14;55.09
74921;BME280;63483;47.384;8.860;2022-12-07T08:05:44;94538.66;;;-4.99;53.57
74921;BME280;63483;47.384;8.860;2022-12-07T08:08:09;94534.88;;;-4.78;53.38
74921;BME280;63483;47.384;8.860;2022-12-07T08:10:34;94542.09;;;-4.56;52.59
74921;BME280;63483;47.384;8.860;2022-12-07T08:13:00;94544.94;;;-4.31;53.26
74921;BME280;63483;47.384;8.860;2022-12-07T08:15:46;94548.84;;;-3.97;52.24
74921;BME280;63483;47.384;8.860;2022-12-07T08:18:13;94557.66;;;-3.59;58.08
74921;BME280;63483;47.384;8.860;2022-12-07T08:20:39;94544.84;;;-4.15;67.10
74921;BME280;63483;47.384;8.860;2022-12-07T08:23:05;94549.50;;;-4.51;62.96
74921;BME280;63483;47.384;8.860;2022-12-07T08:25:31;94554.38;;;-4.77;60.83
74921;BME280;63483;47.384;8.860;2022-12-07T08:27:57;94552.31;;;-5.00;60.24
74921;BME280;63483;47.384;8.860;2022-12-07T08:30:22;94560.28;;;-5.21;61.04
74921;BME280;63483;47.384;8.860;2022-12-07T08:32:48;94549.34;;;-5.39;59.92
74921;BME280;63483;47.384;8.860;2022-12-07T08:35:14;94556.72;;;-5.49;58.89
74921;BME280;63483;47.384;8.860;2022-12-07T08:37:40;94550.13;;;-5.53;59.34
74921;BME280;63483;47.384;8.860;2022-12-07T08:40:07;94557.19;;;-5.58;59.21
74921;BME280;63483;47.384;8.860;2022-12-07T08:42:33;94551.44;;;-5.62;58.71
74921;BME280;63483;47.384;8.860;2022-12-07T08:45:06;94558.84;;;-5.57;58.86
74921;BME280;63483;47.384;8.860;2022-12-07T08:47:35;94553.81;;;-5.27;59.84
74921;BME280;63483;47.384;8.860;2022-12-07T08:50:04;94560.97;;;-4.73;58.87
74921;BME280;63483;47.384;8.860;2022-12-07T08:52:31;94557.63;;;-4.59;57.97
74921;BME280;63483;47.384;8.860;2022-12-07T08:54:58;94557.88;;;-4.63;56.71
74921;BME280;63483;47.384;8.860;2022-12-07T08:57:24;94556.59;;;-4.56;55.75
74921;BME280;63483;47.384;8.860;2022-12-07T08:59:50;94551.78;;;-4.46;54.82
74921;BME280;63483;47.384;8.860;2022-12-07T09:02:15;94559.00;;;-4.39;52.52
74921;BME280;63483;47.384;8.860;2022-12-07T09:04:40;94553.06;;;-4.39;51.75
74921;BME280;63483;47.384;8.860;2022-12-07T09:07:06;94562.84;;;-4.17;54.58
74921;BME280;63483;47.384;8.860;2022-12-07T09:09:32;94559.06;;;-3.68;56.73
74921;BME280;63483;47.384;8.860;2022-12-07T09:11:57;94562.28;;;-3.24;56.22
74921;BME280;63483;47.384;8.860;2022-12-07T09:14:22;94562.50;;;-2.87;58.23
74921;BME280;63483;47.384;8.860;2022-12-07T09:16:48;94559.78;;;-2.58;58.20
74921;BME280;63483;47.384;8.860;2022-12-07T09:19:13;94558.97;;;-2.33;58.39
74921;BME280;63483;47.384;8.860;2022-12-07T09:21:38;94562.63;;;-2.12;58.87
74921;BME280;63483;47.384;8.860;2022-12-07T09:24:04;94565.50;;;-1.91;60.26
74921;BME280;63483;47.384;8.860;2022-12-07T09:26:29;94563.31;;;-1.71;59.21
74921;BME280;63483;47.384;8.860;2022-12-07T09:28:55;94566.44;;;-1.55;58.77
74921;BME280;63483;47.384;8.860;2022-12-07T09:31:20;94570.72;;;-1.42;58.07
74921;BME280;63483;47.384;8.860;2022-12-07T09:33:45;94574.16;;;-1.30;58.07
74921;BME280;63483;47.384;8.860;2022-12-07T09:36:10;94580.41;;;-1.22;58.52
74921;BME280;63483;47.384;8.860;2022-12-07T09:38:36;94571.44;;;-1.16;57.83
74921;BME280;63483;47.384;8.860;2022-12-07T09:41:07;94571.63;;;-1.06;58.41
74921;BME280;63483;47.384;8.860;2022-12-07T09:43:35;94573.78;;;-1.00;57.97
74921;BME280;63483;47.384;8.860;2022-12-07T09:46:01;94571.56;;;-0.93;57.85
74921;BME280;63483;47.384;8.860;2022-12-07T09:48:32;94571.25;;;-0.89;57.62
74921;BME280;63483;47.384;8.860;2022-12-07T09:51:00;94570.81;;;-0.82;57.55
74921;BME280;63483;47.384;8.860;2022-12-07T09:53:28;94566.75;;;-0.74;58.30
74921;BME280;63483;47.384;8.860;2022-12-07T09:55:54;94566.88;;;-0.64;57.80
74921;BME280;63483;47.384;8.860;2022-12-07T09:58:23;94559.66;;;-0.59;57.44
74921;BME280;63483;47.384;8.860;2022-12-07T10:01:13;94553.34;;;-0.55;57.76
74921;BME280;63483;47.384;8.860;2022-12-07T10:04:24;94554.88;;;-0.52;56.94
74921;BME280;63483;47.384;8.860;2022-12-07T10:06:30;94547.88;;;-0.50;57.14
74921;BME280;63483;47.384;8.860;2022-12-07T10:08:55;94554.63;;;-0.49;57.77
74921;BME280;63483;47.384;8.860;2022-12-07T10:11:21;94551.38;;;-0.51;57.15
74921;BME280;63483;47.384;8.860;2022-12-07T10:13:49;94554.28;;;-0.56;57.68
74921;BME280;63483;47.384;8.860;2022-12-07T10:18:50;94546.06;;;-0.72;58.12
74921;BME280;63483;47.384;8.860;2022-12-07T10:21:21;94537.66;;;-0.63;57.64
74921;BME280;63483;47.384;8.860;2022-12-07T10:26:36;94541.31;;;-0.54;57.42
74921;BME280;63483;47.384;8.860;2022-12-07T10:29:20;94542.50;;;-0.47;57.46
74921;BME280;63483;47.384;8.860;2022-12-07T10:31:52;94534.06;;;-0.49;57.95
74921;BME280;63483;47.384;8.860;2022-12-07T10:34:27;94527.88;;;-0.46;57.23
74921;BME280;63483;47.384;8.860;2022-12-07T10:37:07;94531.63;;;-0.39;57.59
74921;BME280;63483;47.384;8.860;2022-12-07T10:39:48;94526.69;;;-0.31;57.23
74921;BME280;63483;47.384;8.860;2022-12-07T10:42:28;94515.84;;;-0.23;56.87
74921;BME280;63483;47.384;8.860;2022-12-07T10:45:16;94512.81;;;-0.17;57.09
74921;BME280;63483;47.384;8.860;2022-12-07T10:59:01;94513.00;;;0.25;59.29
74921;BME280;63483;47.384;8.860;2022-12-07T11:01:46;94501.38;;;0.42;58.62
74921;BME280;63483;47.384;8.860;2022-12-07T11:04:17;94496.88;;;-0.11;56.46
74921;BME280;63483;47.384;8.860;2022-12-07T11:26:26;94479.19;;;-3.60;54.43
74921;BME280;63483;47.384;8.860;2022-12-07T11:31:36;94472.34;;;-3.87;52.73
74921;BME280;63483;47.384;8.860;2022-12-07T11:34:19;94465.97;;;-3.94;52.76
74921;BME280;63483;47.384;8.860;2022-12-07T11:36:52;94463.97;;;-3.76;54.42
74921;BME280;63483;47.384;8.860;2022-12-07T11:39:41;94471.06;;;-3.67;54.45
74921;BME280;63483;47.384;8.860;2022-12-07T11:42:14;94461.22;;;-3.46;52.95
74921;BME280;63483;47.384;8.860;2022-12-07T11:47:30;94456.38;;;-2.98;49.74
74921;BME280;63483;47.384;8.860;2022-12-07T11:52:59;94447.59;;;-2.68;51.21
74921;BME280;63483;47.384;8.860;2022-12-07T11:55:38;94452.69;;;-2.42;53.57
74921;BME280;63483;47.384;8.860;2022-12-07T11:58:19;94456.91;;;-2.04;55.58
74921;BME280;63483;47.384;8.860;2022-12-07T12:00:48;94455.75;;;-2.00;60.66
74921;BME280;63483;47.384;8.860;2022-12-07T12:03:23;94450.44;;;-2.85;58.58
74921;BME280;63483;47.384;8.860;2022-12-07T12:05:55;94440.50;;;-2.90;56.77
74921;BME280;63483;47.384;8.860;2022-12-07T12:08:29;94442.56;;;-3.48;56.11
74921;BME280;63483;47.384;8.860;2022-12-07T12:16:55;94446.41;;;-3.68;55.82
74921;BME280;63483;47.384;8.860;2022-12-07T12:22:20;94441.25;;;-3.41;57.82
74921;BME280;63483;47.384;8.860;2022-12-07T12:24:51;94428.91;;;-2.96;56.51
74921;BME280;63483;47.384;8.860;2022-12-07T12:27:26;94425.38;;;-2.43;58.74
74921;BME280;63483;47.384;8.860;2022-12-07T12:29:55;94426.91;;;-2.03;58.11
74921;BME280;63483;47.384;8.860;2022-12-07T12:42:50;94412.50;;;-2.80;50.39
74921;BME280;63483;47.384;8.860;2022-12-07T12:45:22;94412.09;;;-2.87;49.56
74921;BME280;63483;47.384;8.860;2022-12-07T12:47:57;94417.41;;;-2.64;48.67
74921;BME280;63483;47.384;8.860;2022-12-07T12:50:34;94412.34;;;-2.40;50.50
74921;BME280;63483;47.384;8.860;2022-12-07T12:53:14;94421.69;;;-2.02;54.79
74921;BME280;63483;47.384;8.860;2022-12-07T13:00:44;94408.94;;;-1.08;56.03
74921;BME280;63483;47.384;8.860;2022-12-07T13:03:26;94400.38;;;-0.85;55.71
74921;BME280;63483;47.384;8.860;2022-12-07T13:08:49;94393.38;;;-0.60;55.14
74921;BME280;63483;47.384;8.860;2022-12-07T13:11:36;94394.06;;;-0.46;55.09
74921;BME280;63483;47.384;8.860;2022-12-07T13:17:12;94388.88;;;-0.24;54.84
74921;BME280;63483;47.384;8.860;2022-12-07T13:27:28;94378.19;;;0.03;54.15
74921;BME280;63483;47.384;8.860;2022-12-07T13:29:56;94376.75;;;0.11;54.10
74921;BME280;63483;47.384;8.860;2022-12-07T13:32:24;94380.84;;;0.13;54.70
74921;BME280;63483;47.384;8.860;2022-12-07T13:34:50;94373.69;;;0.17;54.78
74921;BME280;63483;47.384;8.860;2022-12-07T13:37:26;94373.81;;;0.15;55.33
74921;BME280;63483;47.384;8.860;2022-12-07T13:40:00;94371.50;;;0.12;55.37
74921;BME280;63483;47.384;8.860;2022-12-07T13:42:37;94370.06;;;0.19;54.52
74921;BME280;63483;47.384;8.860;2022-12-07T13:45:23;94373.81;;;0.15;54.94
74921;BME280;63483;47.384;8.860;2022-12-07T13:48:19;94368.91;;;0.12;54.39
74921;BME280;63483;47.384;8.860;2022-12-07T13:50:53;94364.94;;;0.08;54.67
74921;BME280;63483;47.384;8.860;2022-12-07T13:53:19;94372.91;;;0.05;54.64
74921;BME280;63483;47.384;8.860;2022-12-07T13:55:46;94365.38;;;0.13;54.11
74921;BME280;63483;47.384;8.860;2022-12-07T13:58:12;94364.56;;;0.13;54.19
74921;BME280;63483;47.384;8.860;2022-12-07T14:00:39;94366.53;;;0.20;54.40
74921;BME280;63483;47.384;8.860;2022-12-07T14:05:37;94358.13;;;0.18;54.50
74921;BME280;63483;47.384;8.860;2022-12-07T14:08:22;94367.38;;;0.21;56.61
74921;BME280;63483;47.384;8.860;2022-12-07T14:13:36;94357.75;;;0.44;54.81
74921;BME280;63483;47.384;8.860;2022-12-07T14:18:43;94350.50;;;0.49;54.29
74921;BME280;63483;47.384;8.860;2022-12-07T14:21:16;94348.34;;;0.54;53.24
74921;BME280;63483;47.384;8.860;2022-12-07T14:23:43;94348.09;;;0.57;53.57
74921;BME280;63483;47.384;8.860;2022-12-07T14:26:18;94351.38;;;0.60;54.41
74921;BME280;63483;47.384;8.860;2022-12-07T14:28:44;94337.28;;;0.64;53.12
74921;BME280;63483;47.384;8.860;2022-12-07T14:31:16;94353.09;;;0.38;53.89
74921;BME280;63483;47.384;8.860;2022-12-07T14:33:42;94353.75;;;-0.14;48.78
74921;BME280;63483;47.384;8.860;2022-12-07T14:36:12;94349.88;;;-0.63;46.69
74921;BME280;63483;47.384;8.860;2022-12-07T14:38:37;94350.09;;;-0.66;50.32
74921;BME280;63483;47.384;8.860;2022-12-07T14:41:04;94354.09;;;-0.62;51.92
74921;BME280;63483;47.384;8.860;2022-12-07T14:43:50;94353.59;;;-0.78;58.78
74921;BME280;63483;47.384;8.860;2022-12-07T14:46:15;94351.69;;;-1.33;52.54
74921;BME280;63483;47.384;8.860;2022-12-07T14:48:41;94351.00;;;-1.95;51.06
74921;BME280;63483;47.384;8.860;2022-12-07T14:51:08;94354.19;;;-2.39;52.68
74921;BME280;63483;47.384;8.860;2022-12-07T14:53:41;94352.91;;;-2.71;52.34
74921;BME280;63483;47.384;8.860;2022-12-07T14:56:08;94353.88;;;-2.98;52.62
74921;BME280;63483;47.384;8.860;2022-12-07T14:58:33;94351.75;;;-3.17;52.72